createdAt,value
2022-07-28T00:00:46.913Z,6.53
2022-07-28T00:03:13.858Z,10.63
2022-07-28T00:05:41.627Z,12.82
2022-07-28T00:08:10.167Z,10.05
2022-07-28T00:10:37.400Z,10.00
2022-07-28T00:13:06.792Z,7.57
2022-07-28T00:15:34.412Z,11.50
2022-07-28T00:18:01.273Z,9.55
2022-07-28T00:20:28.711Z,9.35
2022-07-28T00:22:55.508Z,11.23
2022-07-28T00:25:22.571Z,9.65
2022-07-28T00:27:49.457Z,10.32
2022-07-28T00:30:16.580Z,12.38
2022-07-28T00:32:43.650Z,11.00
2022-07-28T00:35:10.443Z,11.15
2022-07-28T00:37:40.036Z,12.65
2022-07-28T00:40:08.598Z,8.77
2022-07-28T00:42:35.384Z,9.68
2022-07-28T00:45:02.730Z,9.48
2022-07-28T00:47:33.914Z,10.10
2022-07-28T00:50:05.020Z,11.52
2022-07-28T00:52:32.895Z,9.23
2022-07-28T00:54:59.752Z,10.55
2022-07-28T00:57:26.892Z,10.68
2022-07-28T00:59:54.111Z,10.38
2022-07-28T01:02:21.372Z,9.70
2022-07-28T01:04:48.400Z,9.15
2022-07-28T01:07:43.145Z,9.32
2022-07-28T01:10:23.066Z,9.43
2022-07-28T01:13:13.673Z,11.38
2022-07-28T01:15:58.178Z,9.43
2022-07-28T01:18:28.912Z,13.07
2022-07-28T01:21:05.147Z,12.38
2022-07-28T01:23:31.919Z,9.98
2022-07-28T01:26:17.499Z,10.00
2022-07-28T01:29:21.851Z,9.90
2022-07-28T01:31:58.968Z,8.07
2022-07-28T01:34:45.600Z,10.02
2022-07-28T01:37:19.797Z,7.30
2022-07-28T01:39:51.273Z,9.63
2022-07-28T01:42:20.670Z,7.20
2022-07-28T01:44:50.457Z,7.03
2022-07-28T01:47:19.631Z,10.00
2022-07-28T01:49:49.141Z,8.13
2022-07-28T01:52:18.796Z,9.65
2022-07-28T01:54:47.999Z,8.10
2022-07-28T01:57:18.425Z,9.73
2022-07-28T01:59:46.744Z,7.97
2022-07-28T02:02:17.404Z,8.05
2022-07-28T02:04:47.578Z,10.13
2022-07-28T02:07:16.188Z,10.05
2022-07-28T02:09:45.941Z,10.35
2022-07-28T02:12:16.849Z,9.73
2022-07-28T02:14:46.735Z,9.27
2022-07-28T02:17:17.893Z,7.80
2022-07-28T02:19:47.524Z,10.82
2022-07-28T02:22:16.187Z,9.65
2022-07-28T02:24:45.536Z,8.35
2022-07-28T02:27:21.153Z,6.47
2022-07-28T02:30:01.053Z,8.40
2022-07-28T02:32:50.541Z,6.00
2022-07-28T02:35:44.714Z,5.28
2022-07-28T02:38:41.841Z,5.57
2022-07-28T02:41:15.712Z,5.28
2022-07-28T02:43:49.813Z,5.65
2022-07-28T02:46:22.261Z,4.32
2022-07-28T02:48:56.585Z,6.30
2022-07-28T02:51:27.768Z,5.30
2022-07-28T02:53:56.714Z,5.47
2022-07-28T02:56:25.254Z,5.00
2022-07-28T02:58:54.027Z,5.00
2022-07-28T03:01:21.587Z,5.53
2022-07-28T03:03:49.195Z,5.55
2022-07-28T03:06:17.976Z,5.65
2022-07-28T03:08:45.123Z,4.93
2022-07-28T03:11:13.814Z,5.75
2022-07-28T03:13:40.671Z,6.78
2022-07-28T03:16:08.123Z,6.10
2022-07-28T03:18:35.206Z,6.32
2022-07-28T03:21:02.409Z,6.82
2022-07-28T03:23:35.196Z,5.57
2022-07-28T03:26:09.653Z,6.50
2022-07-28T03:28:37.963Z,6.32
2022-07-28T03:31:09.207Z,6.32
2022-07-28T03:33:36.266Z,5.55
2022-07-28T03:36:08.746Z,4.35
2022-07-28T03:38:45.385Z,4.35
2022-07-28T03:41:15.066Z,5.05
2022-07-28T03:43:43.096Z,4.30
2022-07-28T03:46:13.334Z,3.83
2022-07-28T03:48:40.499Z,4.75
2022-07-28T03:51:07.282Z,3.83
2022-07-28T03:53:34.162Z,5.70
2022-07-28T03:56:01.021Z,5.35
2022-07-28T03:58:28.991Z,4.72
2022-07-28T04:00:57.435Z,4.90
2022-07-28T04:03:42.493Z,5.90
2022-07-28T04:06:12.334Z,4.75
2022-07-28T04:08:39.148Z,3.95
2022-07-28T04:11:05.893Z,5.72
2022-07-28T04:13:32.735Z,7.53
2022-07-28T04:16:00.284Z,4.80
2022-07-28T04:18:27.144Z,6.03
2022-07-28T04:20:54.009Z,5.80
2022-07-28T04:23:21.034Z,6.63
2022-07-28T04:25:48.619Z,6.28
2022-07-28T04:28:15.874Z,7.68
2022-07-28T04:30:43.763Z,4.78
2022-07-28T04:33:11.206Z,5.95
2022-07-28T04:35:38.404Z,5.88
2022-07-28T04:38:05.990Z,6.32
2022-07-28T04:40:34.521Z,5.32
2022-07-28T04:43:02.957Z,8.88
2022-07-28T04:45:30.375Z,9.35
2022-07-28T04:47:57.665Z,6.97
2022-07-28T04:50:25.192Z,8.57
2022-07-28T04:52:51.990Z,7.60
2022-07-28T04:55:18.914Z,9.50
2022-07-28T04:57:46.296Z,8.95
2022-07-28T05:00:14.825Z,9.10
2022-07-28T05:02:45.354Z,8.18
2022-07-28T05:05:13.411Z,10.32
2022-07-28T05:07:41.036Z,8.27
2022-07-28T05:10:09.809Z,8.57
2022-07-28T05:12:37.129Z,10.32
2022-07-28T05:15:05.835Z,9.95
2022-07-28T05:17:32.618Z,10.85
2022-07-28T05:19:59.483Z,9.40
2022-07-28T05:22:27.160Z,9.48
2022-07-28T05:24:53.919Z,9.65
2022-07-28T05:27:20.739Z,10.50
2022-07-28T05:29:48.131Z,8.60
2022-07-28T05:32:16.688Z,10.15
2022-07-28T05:34:47.298Z,8.68
2022-07-28T05:37:14.062Z,9.57
2022-07-28T05:39:41.124Z,7.43
2022-07-28T05:42:08.072Z,8.77
2022-07-28T05:44:38.169Z,7.15
2022-07-28T05:47:06.173Z,8.18
2022-07-28T05:49:33.950Z,6.82
2022-07-28T05:52:00.768Z,8.05
2022-07-28T05:54:28.248Z,6.97
2022-07-28T05:56:55.089Z,7.60
2022-07-28T05:59:22.317Z,6.93
2022-07-28T06:01:49.162Z,6.85
2022-07-28T06:04:26.483Z,9.00
2022-07-28T06:06:54.596Z,6.20
2022-07-28T06:09:21.496Z,6.82
2022-07-28T06:11:50.424Z,6.70
2022-07-28T06:14:18.947Z,6.78
2022-07-28T06:16:51.246Z,6.95
2022-07-28T06:19:19.225Z,6.90
2022-07-28T06:21:47.410Z,7.43
2022-07-28T06:24:15.003Z,6.28
2022-07-28T06:26:44.588Z,7.88
2022-07-28T06:29:12.475Z,6.07
2022-07-28T06:31:39.531Z,6.95
2022-07-28T06:34:06.750Z,6.85
2022-07-28T06:36:33.632Z,6.82
2022-07-28T06:39:00.428Z,6.38
2022-07-28T06:41:28.809Z,7.32
2022-07-28T06:43:55.579Z,7.90
2022-07-28T06:46:22.946Z,5.90
2022-07-28T06:48:50.430Z,6.57
2022-07-28T06:51:19.757Z,5.80
2022-07-28T06:53:48.682Z,5.88
2022-07-28T06:56:16.876Z,6.30
2022-07-28T06:58:47.040Z,6.38
2022-07-28T07:01:15.314Z,5.82
2022-07-28T07:03:43.485Z,5.65
2022-07-28T07:06:11.068Z,5.60
2022-07-28T07:08:38.808Z,6.28
2022-07-28T07:11:06.003Z,5.32
2022-07-28T07:13:33.278Z,6.00
2022-07-28T07:16:00.818Z,6.47
2022-07-28T07:18:27.695Z,7.32
2022-07-28T07:20:57.231Z,4.97
2022-07-28T07:23:24.027Z,11.63
2022-07-28T07:25:50.815Z,5.03
2022-07-28T07:28:17.601Z,5.60
2022-07-28T07:30:44.801Z,5.70
2022-07-28T07:33:12.002Z,5.03
2022-07-28T07:35:38.841Z,4.45
2022-07-28T07:38:06.068Z,5.30
2022-07-28T07:40:33.857Z,4.07
2022-07-28T07:43:00.659Z,5.32
2022-07-28T07:45:27.507Z,8.00
2022-07-28T07:47:54.276Z,6.72
2022-07-28T07:50:21.047Z,4.15
2022-07-28T07:52:50.049Z,4.43
2022-07-28T07:55:17.732Z,4.40
2022-07-28T07:57:45.193Z,5.68
2022-07-28T08:00:28.856Z,4.45
2022-07-28T08:02:57.311Z,4.95
2022-07-28T08:05:35.085Z,4.22
2022-07-28T08:08:05.090Z,4.68
2022-07-28T08:10:33.678Z,7.15
2022-07-28T08:13:00.721Z,5.18
2022-07-28T08:15:27.742Z,5.30
2022-07-28T08:17:54.596Z,4.95
2022-07-28T08:20:21.403Z,4.88
2022-07-28T08:22:49.555Z,7.10
2022-07-28T08:25:16.483Z,5.07
2022-07-28T08:27:43.389Z,4.65
2022-07-28T08:30:12.012Z,5.57
2022-07-28T08:32:38.903Z,4.22
2022-07-28T08:35:31.689Z,4.40
2022-07-28T08:37:53.750Z,4.72
2022-07-28T08:40:25.771Z,4.78
2022-07-28T08:43:07.176Z,4.30
2022-07-28T08:45:37.404Z,5.22
2022-07-28T08:48:08.691Z,4.78
2022-07-28T08:50:37.991Z,4.45
2022-07-28T08:53:06.314Z,6.18
2022-07-28T08:55:36.276Z,5.28
2022-07-28T08:58:04.048Z,4.07
2022-07-28T09:00:30.944Z,3.78
2022-07-28T09:02:58.353Z,5.43
2022-07-28T09:05:25.514Z,6.78
2022-07-28T09:07:55.491Z,4.25
2022-07-28T09:10:23.159Z,3.85
2022-07-28T09:12:50.069Z,3.42
2022-07-28T09:15:16.969Z,3.90
2022-07-28T09:17:43.811Z,6.95
2022-07-28T09:20:11.924Z,5.65
2022-07-28T09:22:59.434Z,4.18
2022-07-28T09:25:27.292Z,4.65
2022-07-28T09:27:54.964Z,5.65
2022-07-28T09:30:33.940Z,6.80
2022-07-28T09:33:42.340Z,4.57
2022-07-28T09:36:13.001Z,3.30
2022-07-28T09:38:41.971Z,5.45
2022-07-28T09:41:08.757Z,4.88
2022-07-28T09:43:36.615Z,3.42
2022-07-28T09:46:17.988Z,6.65
2022-07-28T09:48:57.371Z,4.78
2022-07-28T09:51:33.420Z,3.78
2022-07-28T09:54:08.468Z,3.38
2022-07-28T09:56:36.287Z,4.53
2022-07-28T09:59:03.865Z,5.00
2022-07-28T10:01:36.906Z,2.88
2022-07-28T10:04:04.697Z,11.90
2022-07-28T10:06:33.269Z,3.33
2022-07-28T10:09:03.499Z,4.90
2022-07-28T10:11:30.975Z,3.88
2022-07-28T10:14:00.607Z,3.90
2022-07-28T10:16:32.763Z,2.80
2022-07-28T10:19:01.933Z,13.85
2022-07-28T10:21:32.096Z,7.50
2022-07-28T10:24:04.732Z,4.47
2022-07-28T10:26:37.538Z,6.55
2022-07-28T10:29:07.778Z,3.17
2022-07-28T10:31:52.423Z,7.70
2022-07-28T10:34:25.390Z,4.65
2022-07-28T10:36:55.588Z,3.60
2022-07-28T10:39:24.075Z,3.65
2022-07-28T10:41:51.489Z,4.03
2022-07-28T10:44:20.034Z,4.07
2022-07-28T10:46:47.671Z,5.03
2022-07-28T10:49:15.171Z,3.47
2022-07-28T10:52:02.590Z,4.05
2022-07-28T10:54:38.521Z,3.00
2022-07-28T10:57:12.529Z,6.15
2022-07-28T10:59:58.796Z,3.65
2022-07-28T11:02:47.946Z,4.10
2022-07-28T11:05:32.773Z,2.75
2022-07-28T11:08:02.581Z,4.68
2022-07-28T11:10:30.475Z,5.90
2022-07-28T11:12:59.023Z,8.93
2022-07-28T11:15:36.599Z,5.55
2022-07-28T11:18:07.622Z,3.92
2022-07-28T11:20:56.453Z,2.80
2022-07-28T11:23:46.144Z,3.00
2022-07-28T11:26:19.617Z,3.50
2022-07-28T11:29:05.559Z,2.90
2022-07-28T11:31:44.215Z,2.72
2022-07-28T11:34:25.035Z,2.35
2022-07-28T11:37:10.119Z,2.38
2022-07-28T11:39:45.615Z,3.70
2022-07-28T11:42:25.155Z,4.60
2022-07-28T11:44:52.679Z,2.50
2022-07-28T11:47:25.764Z,4.25
2022-07-28T11:50:12.035Z,4.00
2022-07-28T11:52:40.208Z,2.70
2022-07-28T11:55:07.128Z,3.65
2022-07-28T11:57:41.072Z,2.80
2022-07-28T12:00:08.977Z,3.88
2022-07-28T12:02:36.133Z,4.03
2022-07-28T12:05:09.737Z,2.97
2022-07-28T12:07:45.782Z,7.75
2022-07-28T12:13:25.944Z,2.67
2022-07-28T12:15:53.072Z,2.67
2022-07-28T12:18:19.957Z,4.85
2022-07-28T12:20:48.508Z,2.50
2022-07-28T12:23:15.759Z,3.30
2022-07-28T12:25:47.192Z,2.75
2022-07-28T12:28:16.479Z,2.25
2022-07-28T12:30:46.124Z,3.97
2022-07-28T12:33:23.865Z,7.30
2022-07-28T12:35:56.994Z,2.33
2022-07-28T12:38:26.605Z,4.03
2022-07-28T12:40:54.264Z,1.80
2022-07-28T12:43:29.207Z,2.38
2022-07-28T12:45:56.236Z,2.05
2022-07-28T12:48:23.496Z,2.22
2022-07-28T12:50:50.444Z,4.15
2022-07-28T12:53:22.816Z,2.85
2022-07-28T12:55:59.194Z,3.53
2022-07-28T12:58:28.733Z,3.30
2022-07-28T13:00:56.458Z,4.95
2022-07-28T13:03:28.698Z,3.42
2022-07-28T13:06:03.379Z,1.45
2022-07-28T13:08:44.365Z,2.13
2022-07-28T13:11:41.917Z,2.33
2022-07-28T13:14:01.163Z,2.50
2022-07-28T13:16:29.393Z,1.50
2022-07-28T13:18:59.435Z,3.03
2022-07-28T13:21:58.055Z,3.42
2022-07-28T13:24:27.748Z,3.25
2022-07-28T13:26:55.446Z,1.23
2022-07-28T13:29:22.823Z,1.77
2022-07-28T13:31:50.275Z,5.32
2022-07-28T13:34:17.595Z,1.48
2022-07-28T13:36:44.612Z,1.50
2022-07-28T13:39:11.523Z,1.23
2022-07-28T13:41:48.476Z,1.98
2022-07-28T13:44:26.603Z,2.97
2022-07-28T13:46:53.621Z,3.63
2022-07-28T13:49:22.824Z,3.80
2022-07-28T13:51:51.019Z,4.22
2022-07-28T13:54:21.981Z,3.38
2022-07-28T13:57:08.507Z,1.33
2022-07-28T13:59:37.718Z,5.63
2022-07-28T14:02:05.173Z,4.53
2022-07-28T14:04:31.953Z,1.95
2022-07-28T14:06:59.708Z,2.33
2022-07-28T14:09:26.536Z,1.95
2022-07-28T14:11:54.231Z,1.13
2022-07-28T14:14:24.920Z,3.50
2022-07-28T14:16:54.465Z,1.77
2022-07-28T14:19:38.816Z,1.75
2022-07-28T14:22:12.537Z,3.05
2022-07-28T14:24:43.513Z,4.18
2022-07-28T14:27:11.439Z,1.67
2022-07-28T14:29:39.188Z,2.05
2022-07-28T14:32:07.182Z,5.78
2022-07-28T14:34:34.631Z,14.10
2022-07-28T14:37:04.836Z,7.70
2022-07-28T14:39:36.649Z,6.55
2022-07-28T14:42:04.512Z,4.85
2022-07-28T14:44:31.673Z,4.22
2022-07-28T14:46:58.609Z,5.20
2022-07-28T14:49:25.452Z,2.03
2022-07-28T14:51:52.709Z,1.50
2022-07-28T14:54:19.713Z,1.42
2022-07-28T14:56:47.335Z,2.10
2022-07-28T14:59:14.117Z,1.25
2022-07-28T15:01:41.111Z,2.05
2022-07-28T15:04:10.082Z,1.58
2022-07-28T15:06:37.274Z,1.15
2022-07-28T15:09:04.691Z,1.55
2022-07-28T15:11:31.468Z,1.90
2022-07-28T15:13:59.437Z,2.03
2022-07-28T15:16:26.394Z,2.65
2022-07-28T15:18:53.346Z,1.73
2022-07-28T15:21:20.357Z,2.20
2022-07-28T15:23:47.245Z,7.20
2022-07-28T15:26:14.109Z,1.30
2022-07-28T15:28:41.365Z,2.70
2022-07-28T15:31:08.991Z,1.63
2022-07-28T15:33:47.927Z,3.45
2022-07-28T15:36:18.755Z,3.17
2022-07-28T15:38:47.372Z,3.90
2022-07-28T15:41:16.360Z,3.72
2022-07-28T15:43:43.672Z,4.63
2022-07-28T15:46:12.922Z,1.70
2022-07-28T15:48:43.497Z,4.45
2022-07-28T15:51:11.257Z,1.02
2022-07-28T15:53:38.443Z,0.93
2022-07-28T15:56:05.915Z,1.73
2022-07-28T15:58:32.852Z,1.35
2022-07-28T16:01:01.766Z,2.78
2022-07-28T16:03:29.590Z,1.20
2022-07-28T16:05:56.728Z,1.23
2022-07-28T16:08:24.202Z,4.53
2022-07-28T16:10:54.352Z,2.22
2022-07-28T16:13:31.390Z,2.90
2022-07-28T16:16:09.418Z,2.08
2022-07-28T16:18:38.482Z,1.17
2022-07-28T16:21:06.441Z,1.60
2022-07-28T16:23:34.274Z,4.65
2022-07-28T16:26:01.088Z,1.27
2022-07-28T16:28:28.336Z,4.30
2022-07-28T16:30:55.593Z,3.05
2022-07-28T16:33:22.492Z,1.67
2022-07-28T16:35:49.624Z,1.80
2022-07-28T16:38:19.265Z,1.52
2022-07-28T16:40:46.101Z,1.77
2022-07-28T16:43:12.920Z,1.65
2022-07-28T16:45:40.951Z,2.63
2022-07-28T16:48:07.764Z,3.55
2022-07-28T16:50:35.146Z,1.13
2022-07-28T16:53:04.951Z,1.92
2022-07-28T16:55:31.693Z,4.05
2022-07-28T16:57:58.537Z,3.10
2022-07-28T17:00:26.866Z,1.95
2022-07-28T17:02:53.646Z,3.33
2022-07-28T17:05:20.848Z,2.17
2022-07-28T17:07:48.310Z,3.60
2022-07-28T17:10:20.989Z,1.98
2022-07-28T17:12:53.189Z,1.00
2022-07-28T17:15:22.629Z,3.53
2022-07-28T17:17:51.334Z,2.55
2022-07-28T17:20:19.135Z,2.00
2022-07-28T17:22:46.428Z,1.98
2022-07-28T17:25:42.939Z,2.90
2022-07-28T17:28:00.236Z,3.72
2022-07-28T17:30:29.950Z,3.60
2022-07-28T17:32:59.023Z,2.33
2022-07-28T17:35:34.627Z,1.52
2022-07-28T17:38:03.752Z,3.90
2022-07-28T17:40:30.613Z,3.55
2022-07-28T17:42:57.464Z,4.28
2022-07-28T17:45:24.764Z,2.55
2022-07-28T17:47:52.312Z,3.08
2022-07-28T17:50:19.304Z,4.68
2022-07-28T17:52:46.705Z,8.80
2022-07-28T17:55:40.696Z,7.00
2022-07-28T17:58:27.954Z,2.70
2022-07-28T18:01:09.283Z,3.85
2022-07-28T18:03:58.024Z,2.85
2022-07-28T18:06:33.964Z,1.80
2022-07-28T18:09:08.202Z,2.35
2022-07-28T18:11:56.021Z,5.35
2022-07-28T18:14:29.821Z,2.70
2022-07-28T18:16:57.926Z,6.40
2022-07-28T18:19:25.384Z,4.20
2022-07-28T18:21:52.618Z,2.42
2022-07-28T18:24:22.245Z,9.35
2022-07-28T18:26:52.661Z,4.25
2022-07-28T18:29:21.204Z,3.30
2022-07-28T18:31:49.954Z,3.00
2022-07-28T18:34:17.237Z,4.20
2022-07-28T18:36:45.787Z,3.25
2022-07-28T18:39:12.541Z,5.57
2022-07-28T18:41:47.028Z,3.80
2022-07-28T18:44:17.029Z,2.92
2022-07-28T18:46:44.628Z,6.65
2022-07-28T18:49:11.530Z,3.97
2022-07-28T18:51:38.439Z,3.72
2022-07-28T18:54:05.279Z,2.97
2022-07-28T18:56:33.268Z,2.42
2022-07-28T18:59:00.041Z,3.47
2022-07-28T19:01:26.867Z,5.68
2022-07-28T19:03:53.656Z,3.60
2022-07-28T19:06:20.743Z,4.15
2022-07-28T19:08:47.924Z,3.63
2022-07-28T19:11:19.479Z,4.05
2022-07-28T19:13:47.447Z,4.00
2022-07-28T19:16:14.711Z,2.17
2022-07-28T19:18:41.800Z,3.58
2022-07-28T19:21:08.915Z,3.00
2022-07-28T19:23:35.700Z,5.72
2022-07-28T19:26:02.815Z,2.83
2022-07-28T19:28:29.639Z,4.10
2022-07-28T19:30:58.776Z,3.38
2022-07-28T19:33:25.945Z,4.93
2022-07-28T19:35:52.767Z,3.30
2022-07-28T19:38:19.747Z,4.28
2022-07-28T19:40:46.617Z,4.93
2022-07-28T19:43:13.574Z,4.32
2022-07-28T19:45:41.072Z,6.43
2022-07-28T19:48:08.043Z,3.13
2022-07-28T19:50:36.291Z,5.78
2022-07-28T19:53:03.595Z,3.15
2022-07-28T19:55:35.115Z,3.42
2022-07-28T19:58:03.733Z,4.07
2022-07-28T20:00:30.924Z,7.50
2022-07-28T20:02:58.162Z,7.10
2022-07-28T20:05:25.560Z,5.65
2022-07-28T20:07:52.502Z,6.50
2022-07-28T20:10:19.844Z,7.45
2022-07-28T20:12:47.494Z,6.95
2022-07-28T20:15:15.095Z,7.03
2022-07-28T20:17:42.150Z,7.60
2022-07-28T20:20:11.771Z,10.82
2022-07-28T20:22:41.025Z,16.95
2022-07-28T20:25:09.712Z,11.90
2022-07-28T20:27:41.151Z,18.88
2022-07-28T20:30:09.980Z,21.80
2022-07-28T20:32:37.750Z,17.90
2022-07-28T20:35:06.005Z,13.93
2022-07-28T20:37:36.397Z,19.25
2022-07-28T20:40:05.900Z,16.17
2022-07-28T20:42:32.928Z,14.57
2022-07-28T20:44:59.643Z,11.57
2022-07-28T20:47:27.991Z,8.63
2022-07-28T20:49:55.565Z,12.30
2022-07-28T20:52:23.499Z,10.48
2022-07-28T20:54:54.358Z,8.65
2022-07-28T20:57:22.303Z,6.25
2022-07-28T20:59:51.257Z,13.77
2022-07-28T21:02:19.449Z,16.45
2022-07-28T21:04:50.331Z,7.88
2022-07-28T21:07:59.952Z,16.77
2022-07-28T21:10:09.998Z,7.32
2022-07-28T21:12:37.920Z,7.80
2022-07-28T21:15:06.232Z,11.90
2022-07-28T21:17:33.203Z,7.72
2022-07-28T21:20:00.026Z,10.88
2022-07-28T21:22:26.863Z,9.55
2022-07-28T21:24:55.596Z,10.35
2022-07-28T21:27:23.040Z,5.57
2022-07-28T21:29:50.031Z,7.22
2022-07-28T21:32:17.111Z,9.00
2022-07-28T21:34:44.390Z,10.23
2022-07-28T21:37:12.827Z,7.28
2022-07-28T21:39:39.850Z,7.03
2022-07-28T21:42:08.536Z,7.18
2022-07-28T21:44:37.174Z,6.03
2022-07-28T21:47:04.757Z,8.55
2022-07-28T21:49:32.161Z,4.93
2022-07-28T21:51:59.307Z,3.88
2022-07-28T21:54:26.064Z,3.53
2022-07-28T21:56:52.857Z,5.78
2022-07-28T21:59:19.821Z,3.78
2022-07-28T22:01:46.822Z,4.97
2022-07-28T22:04:14.431Z,6.00
2022-07-28T22:06:44.656Z,7.88
2022-07-28T22:09:14.912Z,9.48
2022-07-28T22:11:42.555Z,4.80
2022-07-28T22:14:09.477Z,9.48
2022-07-28T22:16:36.351Z,4.88
2022-07-28T22:19:04.074Z,4.05
2022-07-28T22:21:31.204Z,6.40
2022-07-28T22:23:58.081Z,6.25
2022-07-28T22:26:24.970Z,5.63
2022-07-28T22:28:51.699Z,5.90
2022-07-28T22:31:18.980Z,4.20
2022-07-28T22:33:46.275Z,5.32
2022-07-28T22:36:13.150Z,6.88
2022-07-28T22:38:39.888Z,4.32
2022-07-28T22:41:07.171Z,4.45
2022-07-28T22:43:34.000Z,5.85
2022-07-28T22:46:00.965Z,7.05
2022-07-28T22:48:28.589Z,3.63
2022-07-28T22:50:55.555Z,5.55
2022-07-28T22:53:22.474Z,6.47
2022-07-28T22:55:49.279Z,7.35
2022-07-28T22:58:16.630Z,5.43
2022-07-28T23:00:43.743Z,4.53
2022-07-28T23:03:11.762Z,5.32
2022-07-28T23:05:40.384Z,9.70
2022-07-28T23:08:07.691Z,5.68
2022-07-28T23:10:34.883Z,5.72
2022-07-28T23:13:01.769Z,5.65
2022-07-28T23:15:39.429Z,6.25
2022-07-28T23:18:10.157Z,3.92
2022-07-28T23:20:38.910Z,6.53
2022-07-28T23:23:05.978Z,7.80
2022-07-28T23:25:35.339Z,5.47
2022-07-28T23:28:02.123Z,7.22
2022-07-28T23:30:28.991Z,4.38
2022-07-28T23:32:56.136Z,6.57
2022-07-28T23:35:23.035Z,4.25
2022-07-28T23:37:50.252Z,6.20
2022-07-28T23:40:17.086Z,4.75
2022-07-28T23:42:43.872Z,4.22
2022-07-28T23:45:11.027Z,4.60
2022-07-28T23:47:38.258Z,3.83
2022-07-28T23:50:06.687Z,4.85
2022-07-28T23:52:33.892Z,5.30
2022-07-28T23:55:00.691Z,4.45
2022-07-28T23:57:30.758Z,4.63
2022-07-28T23:59:58.869Z,6.00
